Página principal
METAR-TAF:

METAR-TAF

Aeroportos :

Aeroporto Internacional de Xi'an Xianyang

Xian, China

latitude: 34-26N, longitude: 108-45E, altura: 479 m

Observação actual do tempo

O boletim foi feito há 11 minutos, às 00:00 UTC
Vento calmo
Temperatura 19°C
Humidade 94%
Pressão 1017 hPa
Visibilidade: 3500 m
neblina

METAR: ZLXY 200000Z 00000MPS 3500 BR NSC 19/18 Q1017 NOSIG

Hora: 08:11 (00:11 UTC)

Previsão

O boletim foi feito há 4 horas e 56 minutos, às 19:15 UTC
Previsão válida de 20 às 00 UTC a 20 às 24 UTC
Vento 6 kt de oes-sudoeste
Visibilidade: 3000 m
neblina
Temporariamente
de 20 às 22 UTC a 20 às 24 UTC
Visibilidade: 0700 m
nevoeiro

TAF: ZLXY 191915Z 2000/2024 24003MPS 3000 BR NSC TX23/2009Z TN15/2022Z TEMPO 2022/2024 0700 FG

Observações e previsões do tempo de mais de 4000 aeroportos (mensagens METAR e TAF).

As estações disponíveis são os pontos amarelos e vermelhos sobre o mapa.

Mova o rato sobre o mapa para ver o nome da estação.

Depois clique no ponto para visualizar as observações e previsões meteorológicas.

Para alterar o mapa : clique nos botões verdes com uma cruz preta para aumentar o zoom; no botão verde com uma pitada de zoom; ou nas setas verdes para mapas adjacentes.


METAR-TAF: